sensor_id;sensor_type;location;lat;lon;timestamp;pressure;altitude;pressure_sealevel;temperature;humidity
77869;BME280;67231;59.144;37.934;2023-07-28T00:00:18;99054.47;;;16.66;83.07
77869;BME280;67231;59.144;37.934;2023-07-28T00:02:44;99054.47;;;16.66;83.21
77869;BME280;67231;59.144;37.934;2023-07-28T00:05:10;99043.34;;;16.63;83.52
77869;BME280;67231;59.144;37.934;2023-07-28T00:07:37;99033.06;;;16.60;83.34
77869;BME280;67231;59.144;37.934;2023-07-28T00:10:03;99030.84;;;16.56;83.43
77869;BME280;67231;59.144;37.934;2023-07-28T00:12:32;99040.13;;;16.54;83.45
77869;BME280;67231;59.144;37.934;2023-07-28T00:14:58;99044.44;;;16.55;83.68
77869;BME280;67231;59.144;37.934;2023-07-28T00:17:26;99039.69;;;16.57;83.73
77869;BME280;67231;59.144;37.934;2023-07-28T00:19:52;99065.59;;;16.63;83.63
77869;BME280;67231;59.144;37.934;2023-07-28T00:22:19;99077.53;;;16.67;83.37
77869;BME280;67231;59.144;37.934;2023-07-28T00:24:45;99073.81;;;16.68;83.40
77869;BME280;67231;59.144;37.934;2023-07-28T00:27:11;99070.94;;;16.70;83.02
77869;BME280;67231;59.144;37.934;2023-07-28T00:29:41;99059.78;;;16.73;83.31
77869;BME280;67231;59.144;37.934;2023-07-28T00:32:08;99060.38;;;16.75;83.02
77869;BME280;67231;59.144;37.934;2023-07-28T00:34:36;99049.44;;;16.77;82.86
77869;BME280;67231;59.144;37.934;2023-07-28T00:37:03;99044.69;;;16.79;83.00
77869;BME280;67231;59.144;37.934;2023-07-28T00:39:29;99045.31;;;16.81;82.83
77869;BME280;67231;59.144;37.934;2023-07-28T00:42:00;99048.59;;;16.83;82.69
77869;BME280;67231;59.144;37.934;2023-07-28T00:44:27;99030.84;;;16.82;82.74
77869;BME280;67231;59.144;37.934;2023-07-28T00:46:53;99025.50;;;16.82;82.78
77869;BME280;67231;59.144;37.934;2023-07-28T00:49:19;99009.41;;;16.82;82.99
77869;BME280;67231;59.144;37.934;2023-07-28T00:51:45;99013.97;;;16.81;82.70
77869;BME280;67231;59.144;37.934;2023-07-28T00:54:12;99003.03;;;16.83;82.88
77869;BME280;67231;59.144;37.934;2023-07-28T00:56:38;98999.94;;;16.86;83.06
77869;BME280;67231;59.144;37.934;2023-07-28T00:59:05;98999.53;;;16.89;82.76
77869;BME280;67231;59.144;37.934;2023-07-28T01:01:31;98994.75;;;16.91;83.15
77869;BME280;67231;59.144;37.934;2023-07-28T01:03:58;99002.78;;;16.91;82.72
77869;BME280;67231;59.144;37.934;2023-07-28T01:06:37;98981.34;;;16.91;82.88
77869;BME280;67231;59.144;37.934;2023-07-28T01:09:13;98971.06;;;16.88;82.73
77869;BME280;67231;59.144;37.934;2023-07-28T01:11:57;98962.84;;;16.83;83.15
77869;BME280;67231;59.144;37.934;2023-07-28T01:14:25;98962.84;;;16.83;83.12
77869;BME280;67231;59.144;37.934;2023-07-28T01:16:51;98959.13;;;16.84;83.10
77869;BME280;67231;59.144;37.934;2023-07-28T01:19:19;98956.25;;;16.85;83.32
77869;BME280;67231;59.144;37.934;2023-07-28T01:21:51;98956.66;;;16.89;83.06
77869;BME280;67231;59.144;37.934;2023-07-28T01:24:49;98969.59;;;16.92;83.04
77869;BME280;67231;59.144;37.934;2023-07-28T01:27:17;98971.84;;;16.95;83.04
77869;BME280;67231;59.144;37.934;2023-07-28T01:29:44;98960.66;;;16.98;83.02
77869;BME280;67231;59.144;37.934;2023-07-28T01:32:11;98962.31;;;16.99;82.95
77869;BME280;67231;59.144;37.934;2023-07-28T01:34:38;98968.88;;;17.03;82.95
77869;BME280;67231;59.144;37.934;2023-07-28T01:37:04;98982.06;;;17.05;82.65
77869;BME280;67231;59.144;37.934;2023-07-28T01:39:31;98971.34;;;17.05;82.81
77869;BME280;67231;59.144;37.934;2023-07-28T01:41:57;98978.34;;;17.06;82.85
77869;BME280;67231;59.144;37.934;2023-07-28T01:44:24;98970.06;;;17.07;82.88
77869;BME280;67231;59.144;37.934;2023-07-28T01:46:50;98944.91;;;17.08;82.59
77869;BME280;67231;59.144;37.934;2023-07-28T01:49:16;98937.47;;;17.10;82.66
77869;BME280;67231;59.144;37.934;2023-07-28T01:51:43;98933.75;;;17.11;82.43
77869;BME280;67231;59.144;37.934;2023-07-28T01:54:09;98933.31;;;17.15;82.59
77869;BME280;67231;59.144;37.934;2023-07-28T01:56:36;98927.50;;;17.18;82.25
77869;BME280;67231;59.144;37.934;2023-07-28T01:59:02;98923.56;;;17.20;82.01
77869;BME280;67231;59.144;37.934;2023-07-28T02:01:29;98899.81;;;17.24;82.11
77869;BME280;67231;59.144;37.934;2023-07-28T02:03:55;98905.75;;;17.26;81.96
77869;BME280;67231;59.144;37.934;2023-07-28T02:06:22;98896.66;;;17.27;81.96
77869;BME280;67231;59.144;37.934;2023-07-28T02:08:49;98878.28;;;17.31;81.89
77869;BME280;67231;59.144;37.934;2023-07-28T02:11:15;98873.72;;;17.31;81.69
77869;BME280;67231;59.144;37.934;2023-07-28T02:13:41;98882.81;;;17.30;81.63
77869;BME280;67231;59.144;37.934;2023-07-28T02:16:13;98874.78;;;17.30;81.83
77869;BME280;67231;59.144;37.934;2023-07-28T02:18:40;98875.59;;;17.31;81.76
77869;BME280;67231;59.144;37.934;2023-07-28T02:21:08;98878.88;;;17.33;81.82
77869;BME280;67231;59.144;37.934;2023-07-28T02:23:35;98875.75;;;17.36;81.63
77869;BME280;67231;59.144;37.934;2023-07-28T02:26:01;98883.34;;;17.39;81.50
77869;BME280;67231;59.144;37.934;2023-07-28T02:28:27;98881.84;;;17.43;81.49
77869;BME280;67231;59.144;37.934;2023-07-28T02:30:56;98883.97;;;17.53;81.49
77869;BME280;67231;59.144;37.934;2023-07-28T02:33:22;98873.78;;;17.61;80.96
77869;BME280;67231;59.144;37.934;2023-07-28T02:35:49;98875.78;;;17.66;80.54
77869;BME280;67231;59.144;37.934;2023-07-28T02:38:15;98873.31;;;17.64;80.95
77869;BME280;67231;59.144;37.934;2023-07-28T02:40:42;98865.50;;;17.63;80.89
77869;BME280;67231;59.144;37.934;2023-07-28T02:43:09;98867.13;;;17.64;80.85
77869;BME280;67231;59.144;37.934;2023-07-28T02:45:35;98858.50;;;17.62;81.12
77869;BME280;67231;59.144;37.934;2023-07-28T02:48:01;98864.31;;;17.59;80.76
77869;BME280;67231;59.144;37.934;2023-07-28T02:50:28;98860.38;;;17.61;81.11
77869;BME280;67231;59.144;37.934;2023-07-28T02:52:54;98860.13;;;17.63;80.92
77869;BME280;67231;59.144;37.934;2023-07-28T02:55:20;98860.38;;;17.61;80.96
77869;BME280;67231;59.144;37.934;2023-07-28T02:57:47;98870.97;;;17.56;81.17
77869;BME280;67231;59.144;37.934;2023-07-28T03:00:13;98868.94;;;17.52;81.52
77869;BME280;67231;59.144;37.934;2023-07-28T03:02:40;98862.38;;;17.47;81.45
77869;BME280;67231;59.144;37.934;2023-07-28T03:05:07;98866.13;;;17.46;81.76
77869;BME280;67231;59.144;37.934;2023-07-28T03:07:52;98865.75;;;17.43;81.72
77869;BME280;67231;59.144;37.934;2023-07-28T03:10:18;98859.56;;;17.42;81.85
77869;BME280;67231;59.144;37.934;2023-07-28T03:12:46;98857.47;;;17.44;81.83
77869;BME280;67231;59.144;37.934;2023-07-28T03:15:12;98852.72;;;17.46;81.92
77869;BME280;67231;59.144;37.934;2023-07-28T03:17:38;98860.78;;;17.46;81.82
77869;BME280;67231;59.144;37.934;2023-07-28T03:20:05;98857.03;;;17.47;81.70
77869;BME280;67231;59.144;37.934;2023-07-28T03:22:32;98865.69;;;17.50;81.74
77869;BME280;67231;59.144;37.934;2023-07-28T03:24:59;98861.94;;;17.51;81.85
77869;BME280;67231;59.144;37.934;2023-07-28T03:27:25;98867.31;;;17.51;81.87
77869;BME280;67231;59.144;37.934;2023-07-28T03:29:51;98862.28;;;17.54;81.94
77869;BME280;67231;59.144;37.934;2023-07-28T03:32:20;98851.78;;;17.53;81.82
77869;BME280;67231;59.144;37.934;2023-07-28T03:34:46;98856.94;;;17.54;81.91
77869;BME280;67231;59.144;37.934;2023-07-28T03:37:17;98859.38;;;17.56;82.04
77869;BME280;67231;59.144;37.934;2023-07-28T03:39:44;98852.53;;;17.60;81.97
77869;BME280;67231;59.144;37.934;2023-07-28T03:42:10;98852.09;;;17.63;81.93
77869;BME280;67231;59.144;37.934;2023-07-28T03:44:37;98852.22;;;17.68;81.71
77869;BME280;67231;59.144;37.934;2023-07-28T03:47:04;98860.41;;;17.73;81.45
77869;BME280;67231;59.144;37.934;2023-07-28T03:49:30;98863.69;;;17.75;81.45
77869;BME280;67231;59.144;37.934;2023-07-28T03:51:57;98855.66;;;17.75;81.78
77869;BME280;67231;59.144;37.934;2023-07-28T03:54:23;98853.31;;;17.79;81.50
77869;BME280;67231;59.144;37.934;2023-07-28T03:56:49;98839.69;;;17.80;81.46
77869;BME280;67231;59.144;37.934;2023-07-28T03:59:16;98851.56;;;17.84;81.63
77869;BME280;67231;59.144;37.934;2023-07-28T04:01:42;98842.69;;;18.02;81.31
77869;BME280;67231;59.144;37.934;2023-07-28T04:04:08;98842.38;;;18.23;80.73
77869;BME280;67231;59.144;37.934;2023-07-28T04:06:43;98841.56;;;18.46;79.65
77869;BME280;67231;59.144;37.934;2023-07-28T04:09:12;98835.38;;;18.69;79.38
77869;BME280;67231;59.144;37.934;2023-07-28T04:11:38;98828.38;;;18.91;79.22
77869;BME280;67231;59.144;37.934;2023-07-28T04:14:05;98835.56;;;19.26;77.92
77869;BME280;67231;59.144;37.934;2023-07-28T04:16:31;98827.78;;;19.42;77.08
77869;BME280;67231;59.144;37.934;2023-07-28T04:18:58;98826.34;;;19.51;77.37
77869;BME280;67231;59.144;37.934;2023-07-28T04:21:25;98826.53;;;19.61;76.80
77869;BME280;67231;59.144;37.934;2023-07-28T04:23:51;98824.34;;;19.58;76.98
77869;BME280;67231;59.144;37.934;2023-07-28T04:26:18;98817.84;;;19.42;77.43
77869;BME280;67231;59.144;37.934;2023-07-28T04:28:48;98815.88;;;19.38;77.59
77869;BME280;67231;59.144;37.934;2023-07-28T04:31:14;98807.03;;;19.54;76.85
77869;BME280;67231;59.144;37.934;2023-07-28T04:34:03;98821.66;;;19.58;76.88
77869;BME280;67231;59.144;37.934;2023-07-28T04:36:50;98817.00;;;19.71;76.53
77869;BME280;67231;59.144;37.934;2023-07-28T04:39:20;98817.84;;;19.71;76.27
77869;BME280;67231;59.144;37.934;2023-07-28T04:41:46;98818.44;;;19.61;76.25
77869;BME280;67231;59.144;37.934;2023-07-28T04:44:17;98810.53;;;19.55;76.67
77869;BME280;67231;59.144;37.934;2023-07-28T04:46:44;98808.00;;;19.48;76.72
77869;BME280;67231;59.144;37.934;2023-07-28T04:49:13;98804.97;;;19.44;77.15
77869;BME280;67231;59.144;37.934;2023-07-28T04:52:00;98802.91;;;19.35;76.97
77869;BME280;67231;59.144;37.934;2023-07-28T04:54:56;98801.16;;;19.28;77.36
77869;BME280;67231;59.144;37.934;2023-07-28T04:57:22;98798.16;;;19.25;77.62
77869;BME280;67231;59.144;37.934;2023-07-28T04:59:48;98786.69;;;19.29;77.28
77869;BME280;67231;59.144;37.934;2023-07-28T05:02:15;98785.91;;;19.46;76.83
77869;BME280;67231;59.144;37.934;2023-07-28T05:04:41;98796.38;;;19.59;76.75
77869;BME280;67231;59.144;37.934;2023-07-28T05:07:08;98805.84;;;19.62;76.83
77869;BME280;67231;59.144;37.934;2023-07-28T05:09:34;98797.84;;;19.67;76.65
77869;BME280;67231;59.144;37.934;2023-07-28T05:12:01;98791.84;;;19.77;76.04
77869;BME280;67231;59.144;37.934;2023-07-28T05:14:29;98796.19;;;19.78;75.86
77869;BME280;67231;59.144;37.934;2023-07-28T05:16:55;98795.00;;;19.86;75.91
77869;BME280;67231;59.144;37.934;2023-07-28T05:19:22;98786.41;;;20.06;75.84
77869;BME280;67231;59.144;37.934;2023-07-28T05:21:54;98779.94;;;20.41;74.58
77869;BME280;67231;59.144;37.934;2023-07-28T05:24:27;98784.44;;;20.91;73.30
77869;BME280;67231;59.144;37.934;2023-07-28T05:26:54;98790.19;;;21.71;71.24
77869;BME280;67231;59.144;37.934;2023-07-28T05:29:21;98786.25;;;22.16;69.97
77869;BME280;67231;59.144;37.934;2023-07-28T05:31:48;98783.44;;;22.81;68.23
77869;BME280;67231;59.144;37.934;2023-07-28T05:34:25;98788.38;;;22.95;67.40
77869;BME280;67231;59.144;37.934;2023-07-28T05:36:52;98788.59;;;23.56;66.37
77869;BME280;67231;59.144;37.934;2023-07-28T05:39:18;98779.38;;;24.70;63.58
77869;BME280;67231;59.144;37.934;2023-07-28T05:41:46;98781.53;;;24.79;62.65
77869;BME280;67231;59.144;37.934;2023-07-28T05:44:14;98785.38;;;24.31;63.54
77869;BME280;67231;59.144;37.934;2023-07-28T05:46:40;98776.66;;;24.65;62.88
77869;BME280;67231;59.144;37.934;2023-07-28T05:49:07;98780.06;;;25.02;62.16
77869;BME280;67231;59.144;37.934;2023-07-28T05:51:33;98771.59;;;25.69;60.43
77869;BME280;67231;59.144;37.934;2023-07-28T05:54:00;98767.47;;;26.40;58.41
77869;BME280;67231;59.144;37.934;2023-07-28T05:56:26;98773.91;;;25.86;59.41
77869;BME280;67231;59.144;37.934;2023-07-28T05:58:52;98771.03;;;25.72;59.76
77869;BME280;67231;59.144;37.934;2023-07-28T06:01:19;98776.47;;;26.35;58.77
77869;BME280;67231;59.144;37.934;2023-07-28T06:04:11;98766.09;;;27.15;56.86
77869;BME280;67231;59.144;37.934;2023-07-28T06:06:43;98777.03;;;27.72;55.89
77869;BME280;67231;59.144;37.934;2023-07-28T06:09:12;98786.00;;;27.54;55.18
77869;BME280;67231;59.144;37.934;2023-07-28T06:11:39;98788.31;;;26.79;57.18
77869;BME280;67231;59.144;37.934;2023-07-28T06:14:06;98786.53;;;26.69;57.13
77869;BME280;67231;59.144;37.934;2023-07-28T06:16:35;98789.75;;;26.42;57.63
77869;BME280;67231;59.144;37.934;2023-07-28T06:19:02;98779.69;;;26.43;57.53
77869;BME280;67231;59.144;37.934;2023-07-28T06:21:30;98788.03;;;26.81;56.89
77869;BME280;67231;59.144;37.934;2023-07-28T06:23:56;98792.94;;;26.49;57.56
77869;BME280;67231;59.144;37.934;2023-07-28T06:26:23;98794.66;;;25.76;59.27
77869;BME280;67231;59.144;37.934;2023-07-28T06:28:50;98788.59;;;24.75;60.72
77869;BME280;67231;59.144;37.934;2023-07-28T06:31:16;98787.59;;;24.24;62.79
77869;BME280;67231;59.144;37.934;2023-07-28T06:33:43;98781.63;;;24.07;63.49
77869;BME280;67231;59.144;37.934;2023-07-28T06:36:09;98796.81;;;23.92;63.53
77869;BME280;67231;59.144;37.934;2023-07-28T06:38:35;98785.38;;;23.64;64.42
77869;BME280;67231;59.144;37.934;2023-07-28T06:41:02;98777.47;;;23.42;64.92
77869;BME280;67231;59.144;37.934;2023-07-28T06:43:28;98760.38;;;23.21;65.61
77869;BME280;67231;59.144;37.934;2023-07-28T06:45:55;98763.78;;;23.06;66.23
77869;BME280;67231;59.144;37.934;2023-07-28T06:48:21;98761.06;;;23.01;66.32
77869;BME280;67231;59.144;37.934;2023-07-28T06:50:47;98748.38;;;23.02;66.82
77869;BME280;67231;59.144;37.934;2023-07-28T06:53:14;98756.97;;;22.88;67.27
77869;BME280;67231;59.144;37.934;2023-07-28T06:55:40;98748.75;;;22.68;67.92
77869;BME280;67231;59.144;37.934;2023-07-28T06:58:09;98753.25;;;22.47;68.53
77869;BME280;67231;59.144;37.934;2023-07-28T07:00:35;98744.72;;;22.28;69.25
77869;BME280;67231;59.144;37.934;2023-07-28T07:03:01;98751.88;;;22.07;69.90
77869;BME280;67231;59.144;37.934;2023-07-28T07:05:28;98743.44;;;21.98;70.41
77869;BME280;67231;59.144;37.934;2023-07-28T07:07:54;98742.81;;;21.91;70.72
77869;BME280;67231;59.144;37.934;2023-07-28T07:10:23;98751.38;;;21.77;71.16
77869;BME280;67231;59.144;37.934;2023-07-28T07:12:49;98746.69;;;21.68;71.70
77869;BME280;67231;59.144;37.934;2023-07-28T07:15:15;98739.63;;;21.61;72.10
77869;BME280;67231;59.144;37.934;2023-07-28T07:17:42;98732.91;;;21.64;72.27
77869;BME280;67231;59.144;37.934;2023-07-28T07:20:09;98719.78;;;21.78;72.03
77869;BME280;67231;59.144;37.934;2023-07-28T07:22:36;98709.38;;;21.97;71.39
77869;BME280;67231;59.144;37.934;2023-07-28T07:25:03;98714.31;;;22.05;71.41
77869;BME280;67231;59.144;37.934;2023-07-28T07:27:32;98707.03;;;22.06;71.75
77869;BME280;67231;59.144;37.934;2023-07-28T07:29:58;98718.13;;;22.09;71.43
77869;BME280;67231;59.144;37.934;2023-07-28T07:32:24;98721.06;;;22.03;71.66
77869;BME280;67231;59.144;37.934;2023-07-28T07:34:51;98708.31;;;21.93;72.06
77869;BME280;67231;59.144;37.934;2023-07-28T07:37:19;98706.72;;;22.02;72.10
77869;BME280;67231;59.144;37.934;2023-07-28T07:39:45;98706.84;;;22.23;71.72
77869;BME280;67231;59.144;37.934;2023-07-28T07:42:12;98717.84;;;22.53;70.68
77869;BME280;67231;59.144;37.934;2023-07-28T07:44:40;98716.00;;;22.54;70.15
77869;BME280;67231;59.144;37.934;2023-07-28T07:47:14;98733.22;;;22.43;70.65
77869;BME280;67231;59.144;37.934;2023-07-28T07:49:41;98709.03;;;22.26;71.42
77869;BME280;67231;59.144;37.934;2023-07-28T07:52:08;98699.28;;;22.19;71.12
77869;BME280;67231;59.144;37.934;2023-07-28T07:54:37;98706.06;;;22.22;71.71
77869;BME280;67231;59.144;37.934;2023-07-28T07:57:04;98706.81;;;22.12;72.08
77869;BME280;67231;59.144;37.934;2023-07-28T07:59:30;98691.63;;;22.06;72.23
77869;BME280;67231;59.144;37.934;2023-07-28T08:01:59;98690.84;;;22.11;71.99
77869;BME280;67231;59.144;37.934;2023-07-28T08:04:28;98685.69;;;22.04;72.10
77869;BME280;67231;59.144;37.934;2023-07-28T08:06:54;98682.38;;;21.97;72.43
77869;BME280;67231;59.144;37.934;2023-07-28T08:09:21;98682.91;;;21.94;72.66
77869;BME280;67231;59.144;37.934;2023-07-28T08:11:48;98671.84;;;21.95;72.55
77869;BME280;67231;59.144;37.934;2023-07-28T08:14:14;98676.97;;;21.97;72.83
77869;BME280;67231;59.144;37.934;2023-07-28T08:16:41;98681.34;;;22.03;72.59
77869;BME280;67231;59.144;37.934;2023-07-28T08:19:07;98685.19;;;22.12;72.54
77869;BME280;67231;59.144;37.934;2023-07-28T08:21:33;98699.53;;;22.18;72.48
77869;BME280;67231;59.144;37.934;2023-07-28T08:24:03;98694.13;;;22.18;72.57
77869;BME280;67231;59.144;37.934;2023-07-28T08:26:30;98707.13;;;22.21;72.60
77869;BME280;67231;59.144;37.934;2023-07-28T08:28:56;98724.19;;;22.27;72.55
77869;BME280;67231;59.144;37.934;2023-07-28T08:31:23;98729.31;;;22.23;72.56
77869;BME280;67231;59.144;37.934;2023-07-28T08:33:49;98752.69;;;22.07;73.20
77869;BME280;67231;59.144;37.934;2023-07-28T08:36:16;98761.69;;;21.86;73.90
77869;BME280;67231;59.144;37.934;2023-07-28T08:38:42;98758.34;;;21.73;74.39
77869;BME280;67231;59.144;37.934;2023-07-28T08:41:12;98759.72;;;21.76;74.55
77869;BME280;67231;59.144;37.934;2023-07-28T08:43:38;98762.44;;;21.76;74.64
77869;BME280;67231;59.144;37.934;2023-07-28T08:46:04;98771.34;;;21.76;74.62
77869;BME280;67231;59.144;37.934;2023-07-28T08:48:31;98774.53;;;21.73;74.73
77869;BME280;67231;59.144;37.934;2023-07-28T08:50:57;98776.19;;;21.74;74.66
77869;BME280;67231;59.144;37.934;2023-07-28T08:53:23;98768.97;;;21.80;74.48
77869;BME280;67231;59.144;37.934;2023-07-28T08:55:50;98764.94;;;21.88;74.28
77869;BME280;67231;59.144;37.934;2023-07-28T08:58:21;98771.78;;;21.95;74.54
77869;BME280;67231;59.144;37.934;2023-07-28T09:00:51;98781.22;;;21.93;74.17
77869;BME280;67231;59.144;37.934;2023-07-28T09:03:18;98782.75;;;21.83;74.28
77869;BME280;67231;59.144;37.934;2023-07-28T09:05:46;98769.75;;;21.80;74.68
77869;BME280;67231;59.144;37.934;2023-07-28T09:08:13;98786.78;;;21.81;74.60
77869;BME280;67231;59.144;37.934;2023-07-28T09:10:41;98791.88;;;21.77;74.62
77869;BME280;67231;59.144;37.934;2023-07-28T09:13:12;98797.13;;;21.62;74.82
77869;BME280;67231;59.144;37.934;2023-07-28T09:15:39;98787.88;;;21.53;75.26
77869;BME280;67231;59.144;37.934;2023-07-28T09:18:10;98788.84;;;21.46;75.62
77869;BME280;67231;59.144;37.934;2023-07-28T09:20:39;98782.06;;;21.44;75.69
77869;BME280;67231;59.144;37.934;2023-07-28T09:23:09;98783.41;;;21.41;75.77
77869;BME280;67231;59.144;37.934;2023-07-28T09:25:36;98788.81;;;21.41;75.93
77869;BME280;67231;59.144;37.934;2023-07-28T09:28:04;98789.09;;;21.45;76.25
77869;BME280;67231;59.144;37.934;2023-07-28T09:30:48;98799.72;;;21.52;75.75
77869;BME280;67231;59.144;37.934;2023-07-28T09:33:32;98794.94;;;21.59;75.73
77869;BME280;67231;59.144;37.934;2023-07-28T09:36:10;98784.84;;;21.76;75.35
77869;BME280;67231;59.144;37.934;2023-07-28T09:38:39;98785.31;;;22.00;74.62
77869;BME280;67231;59.144;37.934;2023-07-28T09:41:08;98779.50;;;22.57;73.36
77869;BME280;67231;59.144;37.934;2023-07-28T09:43:37;98774.19;;;23.35;71.44
77869;BME280;67231;59.144;37.934;2023-07-28T09:46:07;98770.78;;;24.17;69.23
77869;BME280;67231;59.144;37.934;2023-07-28T09:48:33;98776.69;;;24.60;68.28
77869;BME280;67231;59.144;37.934;2023-07-28T09:51:29;98793.13;;;25.00;67.41
77869;BME280;67231;59.144;37.934;2023-07-28T09:54:12;98799.31;;;25.11;66.40
77869;BME280;67231;59.144;37.934;2023-07-28T09:56:39;98796.13;;;24.88;67.26
77869;BME280;67231;59.144;37.934;2023-07-28T09:59:10;98813.22;;;24.94;66.68
77869;BME280;67231;59.144;37.934;2023-07-28T10:01:41;98816.16;;;25.02;66.63
77869;BME280;67231;59.144;37.934;2023-07-28T10:04:07;98796.53;;;25.31;65.97
77869;BME280;67231;59.144;37.934;2023-07-28T10:06:34;98789.63;;;25.89;64.49
77869;BME280;67231;59.144;37.934;2023-07-28T10:09:01;98788.47;;;26.05;64.65
77869;BME280;67231;59.144;37.934;2023-07-28T10:11:27;98798.06;;;25.92;64.19
77869;BME280;67231;59.144;37.934;2023-07-28T10:13:54;98801.41;;;25.39;65.28
77869;BME280;67231;59.144;37.934;2023-07-28T10:16:31;98809.31;;;25.20;65.46
77869;BME280;67231;59.144;37.934;2023-07-28T10:19:03;98789.88;;;24.93;65.68
77869;BME280;67231;59.144;37.934;2023-07-28T10:21:29;98802.66;;;24.92;66.06
77869;BME280;67231;59.144;37.934;2023-07-28T10:24:00;98790.03;;;25.22;65.30
77869;BME280;67231;59.144;37.934;2023-07-28T10:26:38;98762.06;;;25.32;65.08
77869;BME280;67231;59.144;37.934;2023-07-28T10:29:14;98777.06;;;25.14;65.56
77869;BME280;67231;59.144;37.934;2023-07-28T10:31:51;98761.44;;;24.80;65.99
77869;BME280;67231;59.144;37.934;2023-07-28T10:34:19;98762.59;;;24.58;66.96
77869;BME280;67231;59.144;37.934;2023-07-28T10:36:46;98763.69;;;24.47;67.45
77869;BME280;67231;59.144;37.934;2023-07-28T10:39:15;98733.84;;;24.52;67.41
77869;BME280;67231;59.144;37.934;2023-07-28T10:42:06;98723.44;;;24.80;66.59
77869;BME280;67231;59.144;37.934;2023-07-28T10:44:33;98712.75;;;25.04;66.44
77869;BME280;67231;59.144;37.934;2023-07-28T10:46:59;98729.19;;;25.28;65.41
77869;BME280;67231;59.144;37.934;2023-07-28T10:49:25;98735.47;;;25.29;65.59
77869;BME280;67231;59.144;37.934;2023-07-28T10:51:52;98729.81;;;25.15;65.87
77869;BME280;67231;59.144;37.934;2023-07-28T10:54:19;98730.41;;;25.01;65.77
77869;BME280;67231;59.144;37.934;2023-07-28T10:56:47;98737.53;;;24.87;66.62
77869;BME280;67231;59.144;37.934;2023-07-28T10:59:15;98746.00;;;24.70;67.07
77869;BME280;67231;59.144;37.934;2023-07-28T11:01:42;98728.94;;;24.54;67.81
77869;BME280;67231;59.144;37.934;2023-07-28T11:04:16;98724.66;;;24.38;68.17
77869;BME280;67231;59.144;37.934;2023-07-28T11:06:45;98723.31;;;24.40;68.67
77869;BME280;67231;59.144;37.934;2023-07-28T11:09:14;98753.13;;;24.40;68.78
77869;BME280;67231;59.144;37.934;2023-07-28T11:11:41;98752.88;;;24.26;68.97
77869;BME280;67231;59.144;37.934;2023-07-28T11:14:08;98755.59;;;24.11;69.78
77869;BME280;67231;59.144;37.934;2023-07-28T11:16:38;98772.94;;;23.94;69.96
77869;BME280;67231;59.144;37.934;2023-07-28T11:19:10;98776.16;;;23.71;70.65
77869;BME280;67231;59.144;37.934;2023-07-28T11:21:40;98758.25;;;23.49;71.44
77869;BME280;67231;59.144;37.934;2023-07-28T11:24:07;98730.88;;;23.30;72.07
77869;BME280;67231;59.144;37.934;2023-07-28T11:26:35;98732.72;;;23.09;73.11
77869;BME280;67231;59.144;37.934;2023-07-28T11:29:03;98742.91;;;22.91;73.70
77869;BME280;67231;59.144;37.934;2023-07-28T11:31:30;98749.63;;;22.84;74.05
77869;BME280;67231;59.144;37.934;2023-07-28T11:33:57;98742.91;;;22.86;74.22
77869;BME280;67231;59.144;37.934;2023-07-28T11:36:27;98737.75;;;22.90;74.20
77869;BME280;67231;59.144;37.934;2023-07-28T11:38:57;98757.06;;;23.09;74.20
77869;BME280;67231;59.144;37.934;2023-07-28T11:41:25;98758.75;;;23.25;73.82
77869;BME280;67231;59.144;37.934;2023-07-28T11:43:53;98763.66;;;23.44;73.14
77869;BME280;67231;59.144;37.934;2023-07-28T11:46:40;98760.97;;;23.49;73.32
77869;BME280;67231;59.144;37.934;2023-07-28T11:49:17;98767.19;;;23.50;73.28
77869;BME280;67231;59.144;37.934;2023-07-28T11:51:47;98768.03;;;23.50;72.87
77869;BME280;67231;59.144;37.934;2023-07-28T11:54:15;98765.84;;;23.52;73.28
77869;BME280;67231;59.144;37.934;2023-07-28T11:56:44;98762.06;;;23.58;72.61
77869;BME280;67231;59.144;37.934;2023-07-28T11:59:11;98774.53;;;23.64;72.82
77869;BME280;67231;59.144;37.934;2023-07-28T12:01:54;98762.34;;;23.67;72.76
77869;BME280;67231;59.144;37.934;2023-07-28T12:04:57;98777.25;;;23.70;72.42
77869;BME280;67231;59.144;37.934;2023-07-28T12:07:19;98786.97;;;23.71;72.49
77869;BME280;67231;59.144;37.934;2023-07-28T12:12:13;98786.72;;;23.62;72.45
77869;BME280;67231;59.144;37.934;2023-07-28T12:14:39;98781.81;;;23.49;73.04
77869;BME280;67231;59.144;37.934;2023-07-28T12:17:13;98781.50;;;23.40;73.52
77869;BME280;67231;59.144;37.934;2023-07-28T12:19:55;98765.78;;;23.32;73.72
77869;BME280;67231;59.144;37.934;2023-07-28T12:22:22;98787.97;;;23.28;73.90
77869;BME280;67231;59.144;37.934;2023-07-28T12:24:48;98794.97;;;23.19;73.42
77869;BME280;67231;59.144;37.934;2023-07-28T12:27:14;98784.72;;;23.16;73.98
77869;BME280;67231;59.144;37.934;2023-07-28T12:29:42;98777.16;;;23.23;73.80
77869;BME280;67231;59.144;37.934;2023-07-28T12:32:08;98790.47;;;23.40;73.57
77869;BME280;67231;59.144;37.934;2023-07-28T12:34:34;98789.69;;;23.60;72.99
77869;BME280;67231;59.144;37.934;2023-07-28T12:37:01;98778.34;;;23.79;72.08
77869;BME280;67231;59.144;37.934;2023-07-28T12:39:28;98772.66;;;23.80;72.39
77869;BME280;67231;59.144;37.934;2023-07-28T12:41:55;98784.59;;;23.90;71.71
77869;BME280;67231;59.144;37.934;2023-07-28T12:44:21;98772.69;;;23.96;72.26
77869;BME280;67231;59.144;37.934;2023-07-28T12:46:48;98770.50;;;23.93;70.96
77869;BME280;67231;59.144;37.934;2023-07-28T12:49:14;98780.53;;;23.97;71.26
77869;BME280;67231;59.144;37.934;2023-07-28T12:51:40;98782.97;;;23.99;71.11
77869;BME280;67231;59.144;37.934;2023-07-28T12:54:07;98773.78;;;24.05;70.64
77869;BME280;67231;59.144;37.934;2023-07-28T12:56:34;98777.84;;;24.08;70.38
77869;BME280;67231;59.144;37.934;2023-07-28T12:59:00;98774.03;;;24.04;70.61